Time;durP1;ratioP1;P1;durP2;ratioP2;P2;SDS_P1;SDS_P2;PMS_P1;PMS_P2;Temp;Humidity;BMP_temperature;BMP_pressure;BME280_temperature;BME280_humidity;BME280_pressure;Samples;Min_cycle;Max_cycle;Signal;HPM_P1;HPM_P2
2021/11/19 00:00:23;;;;;;;2.30;2.10;;;22.30;55.20;;;;;;5030219;28;20410;-78
2021/11/19 00:02:49;;;;;;;2.20;2.00;;;22.30;55.20;;;;;;5029960;28;20410;-77
2021/11/19 00:05:15;;;;;;;1.97;1.77;;;22.30;55.20;;;;;;5030344;28;20482;-78
2021/11/19 00:07:40;;;;;;;2.00;1.80;;;22.30;55.20;;;;;;5013157;28;20200;-78
2021/11/19 00:10:08;;;;;;;2.63;2.40;;;22.20;55.10;;;;;;5013707;28;20239;-78
2021/11/19 00:12:35;;;;;;;2.33;1.90;;;22.20;55.20;;;;;;5013240;28;20180;-78
2021/11/19 00:15:01;;;;;;;2.63;2.10;;;22.20;55.20;;;;;;5030164;28;20411;-77
2021/11/19 00:17:27;;;;;;;2.00;1.60;;;22.20;55.20;;;;;;5013297;28;20427;-78
2021/11/19 00:20:04;;;;;;;2.43;2.23;;;22.20;55.20;;;;;;5013026;28;20422;-78
2021/11/19 00:22:29;;;;;;;2.30;2.10;;;22.20;55.20;;;;;;5030874;28;20392;-77
2021/11/19 00:24:55;;;;;;;2.00;1.80;;;22.20;55.20;;;;;;5030913;28;20844;-77
2021/11/19 00:27:21;;;;;;;2.07;1.90;;;22.20;55.20;;;;;;5019012;28;20200;-78
2021/11/19 00:29:48;;;;;;;2.33;2.00;;;22.20;55.30;;;;;;5024422;28;20176;-80
2021/11/19 00:32:14;;;;;;;2.50;2.00;;;22.20;55.30;;;;;;5007824;28;20439;-77
2021/11/19 00:34:41;;;;;;;2.83;2.20;;;22.20;55.30;;;;;;5015170;28;20462;-79
2021/11/19 00:37:08;;;;;;;3.60;2.20;;;22.20;55.30;;;;;;5036964;28;20515;-79
2021/11/19 00:39:36;;;;;;;2.00;1.80;;;22.20;55.30;;;;;;5009285;28;20436;-77
2021/11/19 00:42:02;;;;;;;1.70;1.60;;;22.20;55.30;;;;;;5025672;28;20440;-77
2021/11/19 00:44:29;;;;;;;2.07;1.80;;;22.10;55.20;;;;;;5020489;28;20451;-76
2021/11/19 00:46:56;;;;;;;2.37;2.00;;;22.20;55.30;;;;;;5025258;28;20466;-76
2021/11/19 00:49:26;;;;;;;2.10;1.90;;;22.20;55.90;;;;;;5019981;28;20415;-76
2021/11/19 00:51:54;;;;;;;2.40;2.20;;;22.20;55.30;;;;;;5023830;28;20450;-77
2021/11/19 00:54:21;;;;;;;4.27;2.03;;;22.10;55.30;;;;;;5025936;28;20782;-78
2021/11/19 00:56:50;;;;;;;2.20;2.00;;;22.10;55.30;;;;;;5020538;28;20423;-78
2021/11/19 00:59:19;;;;;;;2.37;2.17;;;22.10;55.30;;;;;;5026585;28;20423;-77
2021/11/19 01:01:49;;;;;;;2.53;2.33;;;22.10;55.30;;;;;;5018959;28;20431;-80
2021/11/19 01:04:15;;;;;;;2.43;2.23;;;22.10;55.30;;;;;;5025154;28;20478;-77
2021/11/19 01:06:42;;;;;;;2.67;2.13;;;22.10;55.30;;;;;;5026713;28;20779;-77
2021/11/19 01:09:13;;;;;;;2.87;2.53;;;22.10;55.30;;;;;;5019858;28;20428;-78
2021/11/19 01:11:40;;;;;;;1.70;1.60;;;22.10;55.30;;;;;;5019536;28;20426;-77
2021/11/19 01:14:09;;;;;;;2.87;2.10;;;22.10;55.40;;;;;;5023442;28;20565;-77
2021/11/19 01:16:42;;;;;;;1.97;1.83;;;22.10;55.40;;;;;;5000249;28;20454;-78
2021/11/19 01:19:30;;;;;;;2.17;1.97;;;22.10;55.40;;;;;;5025217;28;20427;-78
2021/11/19 01:22:04;;;;;;;2.30;1.80;;;22.10;55.40;;;;;;5024100;28;20454;-79
2021/11/19 01:24:30;;;;;;;3.33;1.67;;;22.00;55.40;;;;;;5027482;28;20764;-77
2021/11/19 01:26:56;;;;;;;2.57;1.93;;;22.10;55.50;;;;;;5022886;28;20502;-77
2021/11/19 01:29:23;;;;;;;2.50;2.10;;;22.10;55.50;;;;;;5026297;28;20461;-77
2021/11/19 01:32:04;;;;;;;2.20;2.00;;;22.10;55.50;;;;;;5027078;28;20478;-77
2021/11/19 01:34:30;;;;;;;2.77;2.23;;;22.10;55.40;;;;;;5022495;28;20795;-77
2021/11/19 01:36:56;;;;;;;2.30;2.10;;;22.10;55.50;;;;;;5019757;28;20425;-80
2021/11/19 01:39:26;;;;;;;2.10;1.90;;;22.10;55.50;;;;;;5025605;28;20273;-77
2021/11/19 01:42:15;;;;;;;2.00;1.80;;;22.10;55.50;;;;;;5017178;28;20184;-78
2021/11/19 01:45:00;;;;;;;1.70;1.60;;;22.10;55.50;;;;;;5019592;28;20922;-78
2021/11/19 01:47:27;;;;;;;3.10;1.83;;;22.10;55.50;;;;;;5024954;28;20451;-77
2021/11/19 01:49:56;;;;;;;2.30;2.10;;;22.00;55.50;;;;;;5024411;28;20770;-77
2021/11/19 01:52:50;;;;;;;2.37;2.17;;;22.00;55.50;;;;;;5020382;28;20523;-77
2021/11/19 01:55:23;;;;;;;2.40;2.17;;;22.10;55.50;;;;;;5023735;28;20423;-78
2021/11/19 01:57:55;;;;;;;1.80;1.70;;;22.00;55.50;;;;;;5024513;28;20415;-77
2021/11/19 02:00:43;;;;;;;1.97;1.80;;;22.00;55.50;;;;;;5023387;28;20431;-78
2021/11/19 02:03:12;;;;;;;2.17;1.97;;;22.00;55.50;;;;;;5023234;28;20502;-78
2021/11/19 02:05:40;;;;;;;2.57;2.37;;;22.00;55.50;;;;;;5027315;28;20450;-76
2021/11/19 02:08:21;;;;;;;2.27;1.70;;;22.00;55.50;;;;;;5025819;28;20502;-77
2021/11/19 02:10:58;;;;;;;2.20;2.00;;;22.00;55.50;;;;;;5022724;28;20415;-77
2021/11/19 02:13:31;;;;;;;2.40;1.93;;;22.00;55.50;;;;;;5027091;28;20468;-77
2021/11/19 02:16:11;;;;;;;2.20;2.00;;;22.00;55.50;;;;;;5018264;28;20423;-77
2021/11/19 02:18:49;;;;;;;2.30;2.10;;;22.00;55.50;;;;;;5032062;28;20415;-76
2021/11/19 02:21:21;;;;;;;3.10;2.00;;;22.00;55.50;;;;;;5022661;28;20419;-76
2021/11/19 02:24:01;;;;;;;2.57;2.00;;;22.00;55.50;;;;;;5030387;28;20422;-76
2021/11/19 02:26:42;;;;;;;2.07;1.70;;;22.00;55.50;;;;;;5031896;28;20458;-77
2021/11/19 02:29:08;;;;;;;1.60;1.50;;;22.00;55.50;;;;;;5022972;28;20411;-78
2021/11/19 02:31:50;;;;;;;2.10;1.90;;;21.90;55.40;;;;;;5020548;28;20423;-77
2021/11/19 02:34:20;;;;;;;2.43;1.70;;;22.00;55.50;;;;;;5014044;28;20918;-77
2021/11/19 02:37:13;;;;;;;2.20;1.80;;;22.00;55.60;;;;;;5019309;28;20419;-76
2021/11/19 02:39:47;;;;;;;2.33;1.97;;;22.00;55.50;;;;;;5008503;28;20507;-76
2021/11/19 02:42:23;;;;;;;1.93;1.60;;;22.00;55.60;;;;;;5015214;28;20428;-77
2021/11/19 02:44:52;;;;;;;2.50;1.87;;;22.00;55.60;;;;;;5011436;28;20435;-76
2021/11/19 02:47:22;;;;;;;2.50;1.87;;;22.00;55.60;;;;;;5011093;28;20456;-77
2021/11/19 02:49:48;;;;;;;2.30;1.87;;;22.00;55.60;;;;;;4999496;28;20419;-76
2021/11/19 02:52:30;;;;;;;2.13;1.87;;;21.90;55.50;;;;;;4997828;28;20514;-77
2021/11/19 02:54:57;;;;;;;1.77;1.60;;;22.00;55.60;;;;;;5011882;28;20423;-76
2021/11/19 02:57:25;;;;;;;2.27;2.07;;;22.00;55.60;;;;;;5028355;28;20469;-77
2021/11/19 02:59:52;;;;;;;2.10;1.90;;;22.00;56.20;;;;;;5005584;28;20769;-77
2021/11/19 03:02:24;;;;;;;1.93;1.80;;;21.90;55.50;;;;;;5014674;28;20412;-77
2021/11/19 03:04:55;;;;;;;1.90;1.70;;;21.90;55.50;;;;;;5026807;28;20463;-78
2021/11/19 03:07:21;;;;;;;3.13;2.20;;;21.90;55.50;;;;;;4998569;28;20459;-77
2021/11/19 03:09:58;;;;;;;1.80;1.50;;;21.90;55.50;;;;;;4999228;28;20451;-76
2021/11/19 03:12:26;;;;;;;1.83;1.63;;;21.90;55.50;;;;;;4999405;28;20465;-79
2021/11/19 03:14:54;;;;;;;2.47;1.80;;;21.90;55.50;;;;;;5006853;28;20419;-79
2021/11/19 03:17:22;;;;;;;2.23;2.00;;;21.90;55.50;;;;;;5017809;28;20422;-79
2021/11/19 03:19:51;;;;;;;1.90;1.70;;;21.90;55.50;;;;;;5018398;28;20432;-79
2021/11/19 03:22:20;;;;;;;2.60;2.10;;;21.90;55.50;;;;;;5013572;28;20454;-78
2021/11/19 03:24:46;;;;;;;1.90;1.60;;;21.90;55.50;;;;;;5027721;28;20488;-78
2021/11/19 03:27:14;;;;;;;1.70;1.60;;;21.90;55.50;;;;;;5023352;28;20480;-78
2021/11/19 03:29:42;;;;;;;2.10;1.60;;;21.90;55.50;;;;;;5022551;28;20420;-79
2021/11/19 03:32:11;;;;;;;2.00;1.70;;;21.90;55.50;;;;;;5021967;28;20411;-79
2021/11/19 03:34:37;;;;;;;2.10;1.90;;;21.90;55.50;;;;;;5032195;28;20411;-78
2021/11/19 03:37:04;;;;;;;1.60;1.40;;;21.90;55.60;;;;;;5015192;28;20419;-79
2021/11/19 03:39:30;;;;;;;1.63;1.50;;;21.90;55.50;;;;;;5015120;28;20407;-79
2021/11/19 03:41:57;;;;;;;2.10;1.90;;;21.90;55.60;;;;;;5014866;28;20422;-80
2021/11/19 03:44:37;;;;;;;2.40;1.80;;;21.90;55.50;;;;;;5015106;28;20427;-80
2021/11/19 03:47:10;;;;;;;1.83;1.63;;;21.90;55.50;;;;;;5015094;28;20471;-80
2021/11/19 03:49:36;;;;;;;1.90;1.70;;;21.90;56.10;;;;;;5014825;28;20416;-80
2021/11/19 03:52:16;;;;;;;2.43;1.63;;;21.90;55.60;;;;;;5032010;28;20418;-79
2021/11/19 03:54:45;;;;;;;2.40;1.60;;;21.90;55.60;;;;;;5015077;28;20430;-79
2021/11/19 03:57:13;;;;;;;1.97;1.77;;;21.90;55.60;;;;;;5031916;28;20454;-79
2021/11/19 03:59:39;;;;;;;2.03;1.73;;;21.90;55.60;;;;;;5032495;28;20415;-79
2021/11/19 04:02:06;;;;;;;2.17;1.73;;;21.90;55.60;;;;;;5014590;28;20406;-80
2021/11/19 04:04:35;;;;;;;2.40;1.80;;;21.90;55.60;;;;;;5032338;28;20411;-80
2021/11/19 04:07:03;;;;;;;2.17;1.90;;;21.90;55.60;;;;;;5032975;28;20458;-80
2021/11/19 04:09:29;;;;;;;1.87;1.57;;;21.90;55.60;;;;;;5016958;28;20423;-80
2021/11/19 04:11:57;;;;;;;1.70;1.60;;;21.90;55.60;;;;;;5033091;28;20451;-79
2021/11/19 04:14:24;;;;;;;1.63;1.43;;;21.90;55.60;;;;;;5032998;28;20419;-79
2021/11/19 04:16:52;;;;;;;2.00;1.80;;;21.90;55.60;;;;;;5017136;28;20832;-78
2021/11/19 04:19:20;;;;;;;3.70;1.90;;;21.90;55.60;;;;;;5015591;28;20455;-79
2021/11/19 04:21:47;;;;;;;1.60;1.50;;;21.90;55.60;;;;;;5015065;28;20424;-79
2021/11/19 04:24:17;;;;;;;2.00;1.80;;;21.90;55.60;;;;;;5014906;28;20839;-79
2021/11/19 04:26:43;;;;;;;2.00;1.67;;;21.90;55.60;;;;;;5013049;28;20461;-78
2021/11/19 04:29:09;;;;;;;1.30;1.20;;;21.90;55.60;;;;;;4995791;28;20447;-79
2021/11/19 04:31:59;;;;;;;1.70;1.60;;;21.90;55.60;;;;;;4994850;28;20652;-79
2021/11/19 04:34:28;;;;;;;1.97;1.80;;;21.90;55.60;;;;;;5011095;28;20416;-79
2021/11/19 04:36:54;;;;;;;1.87;1.70;;;21.80;55.50;;;;;;5012227;28;20408;-79
2021/11/19 04:39:20;;;;;;;2.03;1.83;;;21.80;55.50;;;;;;5011198;28;20459;-79
2021/11/19 04:41:46;;;;;;;1.60;1.50;;;21.80;55.50;;;;;;5011929;28;20181;-78
2021/11/19 04:44:16;;;;;;;1.70;1.40;;;21.80;55.50;;;;;;5011860;28;20479;-79
2021/11/19 04:46:43;;;;;;;1.90;1.70;;;21.80;55.50;;;;;;5026876;28;20467;-79
2021/11/19 04:49:09;;;;;;;2.37;2.17;;;21.80;55.50;;;;;;4994115;28;20451;-79
2021/11/19 04:51:39;;;;;;;2.10;1.90;;;21.80;55.50;;;;;;4994486;28;20420;-79
2021/11/19 04:54:06;;;;;;;2.10;1.80;;;21.80;55.50;;;;;;5026748;28;20262;-79
2021/11/19 04:56:33;;;;;;;2.07;1.87;;;21.80;55.50;;;;;;5000804;28;20423;-79
2021/11/19 04:58:59;;;;;;;1.80;1.63;;;21.80;55.50;;;;;;5027355;28;20427;-80
2021/11/19 05:01:29;;;;;;;1.97;1.77;;;21.80;55.50;;;;;;5019833;28;20457;-80
2021/11/19 05:03:56;;;;;;;2.07;1.63;;;21.80;55.60;;;;;;5026785;28;20219;-80
2021/11/19 05:06:22;;;;;;;1.63;1.50;;;21.80;55.60;;;;;;5037183;28;21015;-80
2021/11/19 05:08:48;;;;;;;1.80;1.60;;;21.70;55.50;;;;;;5028873;28;20415;-78
2021/11/19 05:11:18;;;;;;;2.40;1.60;;;21.80;55.60;;;;;;5010047;28;20447;-80
2021/11/19 05:13:44;;;;;;;2.20;2.00;;;21.80;55.60;;;;;;5028260;28;20203;-80
2021/11/19 05:16:13;;;;;;;1.87;1.47;;;21.80;55.60;;;;;;5028584;28;20463;-79
2021/11/19 05:18:41;;;;;;;2.10;1.33;;;21.80;55.60;;;;;;5028718;28;20426;-80
2021/11/19 05:21:09;;;;;;;1.53;1.43;;;21.70;55.60;;;;;;5024954;28;20755;-81
2021/11/19 05:23:35;;;;;;;1.67;1.57;;;21.70;56.10;;;;;;5029261;28;20411;-80
2021/11/19 05:26:00;;;;;;;1.80;1.53;;;21.70;55.60;;;;;;5023439;28;20461;-80
2021/11/19 05:28:27;;;;;;;2.00;1.80;;;21.70;55.50;;;;;;5026922;28;20841;-80
2021/11/19 05:30:53;;;;;;;2.80;1.60;;;21.70;55.60;;;;;;5019660;28;20249;-80
2021/11/19 05:33:23;;;;;;;1.70;1.60;;;21.70;55.50;;;;;;5036068;28;20426;-81
2021/11/19 05:35:49;;;;;;;1.70;1.57;;;21.70;55.50;;;;;;5024205;28;20926;-80
2021/11/19 05:38:16;;;;;;;1.80;1.57;;;21.70;55.70;;;;;;5005161;28;20455;-84
2021/11/19 05:40:42;;;;;;;1.80;1.40;;;21.70;55.50;;;;;;5021979;28;20455;-80
2021/11/19 05:43:28;;;;;;;2.03;1.83;;;21.80;55.60;;;;;;5019167;28;20427;-80
2021/11/19 05:45:54;;;;;;;3.23;2.10;;;21.80;55.50;;;;;;5029868;28;20423;-80
2021/11/19 05:48:19;;;;;;;2.67;1.90;;;21.80;55.50;;;;;;5024086;28;20431;-80
2021/11/19 05:50:45;;;;;;;2.40;1.80;;;21.80;55.50;;;;;;5018967;28;20180;-81
2021/11/19 05:53:24;;;;;;;2.97;2.00;;;21.80;55.50;;;;;;5023132;28;20192;-80
2021/11/19 05:55:51;;;;;;;2.47;1.87;;;21.80;55.40;;;;;;5029507;28;20415;-80
2021/11/19 05:58:20;;;;;;;2.73;2.10;;;21.80;55.40;;;;;;5027598;28;20431;-80
2021/11/19 06:00:58;;;;;;;1.90;1.70;;;21.80;55.40;;;;;;5022288;28;20464;-81
2021/11/19 06:03:24;;;;;;;4.10;1.87;;;21.80;55.40;;;;;;5028748;28;20407;-80
2021/11/19 06:05:52;;;;;;;1.93;1.70;;;21.80;55.40;;;;;;5029053;28;20423;-81
2021/11/19 06:08:19;;;;;;;1.93;1.67;;;21.80;55.40;;;;;;5024280;28;20458;-81
2021/11/19 06:10:50;;;;;;;1.87;1.60;;;21.80;55.40;;;;;;5024912;28;20450;-81
2021/11/19 06:13:20;;;;;;;2.43;1.57;;;21.80;55.40;;;;;;5013690;28;20435;-80
2021/11/19 06:15:51;;;;;;;3.70;2.03;;;21.80;55.30;;;;;;4998735;28;20428;-80
2021/11/19 06:18:27;;;;;;;2.03;1.83;;;21.80;55.30;;;;;;5015852;28;20494;-80
2021/11/19 06:21:00;;;;;;;1.67;1.57;;;21.90;55.40;;;;;;4996553;28;20419;-80
2021/11/19 06:23:32;;;;;;;2.00;1.60;;;21.80;55.30;;;;;;4998869;28;20420;-81
2021/11/19 06:26:00;;;;;;;2.63;1.80;;;21.80;55.30;;;;;;5015269;28;20419;-80
2021/11/19 06:28:30;;;;;;;2.00;1.53;;;21.80;55.30;;;;;;5028990;28;20423;-80
2021/11/19 06:30:59;;;;;;;1.87;1.50;;;21.80;55.30;;;;;;4995372;28;20416;-80
2021/11/19 06:33:25;;;;;;;3.00;1.67;;;21.80;55.30;;;;;;5012573;28;20443;-81
2021/11/19 06:35:51;;;;;;;1.70;1.50;;;21.90;55.40;;;;;;4994990;28;20444;-80
2021/11/19 06:38:18;;;;;;;2.37;1.50;;;21.90;55.30;;;;;;5013333;28;20412;-80
2021/11/19 06:40:44;;;;;;;2.43;1.63;;;21.80;55.30;;;;;;4996108;28;20419;-80
2021/11/19 06:43:10;;;;;;;1.70;1.20;;;21.90;55.30;;;;;;4996767;28;20467;-80
2021/11/19 06:46:15;;;;;;;1.53;1.40;;;21.90;55.30;;;;;;4995852;28;20428;-80
2021/11/19 06:48:45;;;;;;;2.23;1.77;;;21.90;55.30;;;;;;5012917;28;20166;-80
2021/11/19 06:51:11;;;;;;;1.63;1.40;;;21.80;55.30;;;;;;5028410;28;20993;-80
2021/11/19 06:53:39;;;;;;;1.50;1.30;;;21.80;55.30;;;;;;5028221;28;20427;-80
2021/11/19 06:56:05;;;;;;;1.80;1.40;;;21.80;55.30;;;;;;4995295;28;20416;-79
2021/11/19 06:58:31;;;;;;;1.80;1.40;;;21.80;55.30;;;;;;5014382;28;20435;-79
2021/11/19 07:00:58;;;;;;;2.47;1.87;;;21.80;55.30;;;;;;5031473;28;20419;-79
2021/11/19 07:03:24;;;;;;;2.23;1.30;;;21.90;55.30;;;;;;5015668;28;20184;-80
2021/11/19 07:05:51;;;;;;;2.03;1.53;;;21.90;55.30;;;;;;5033104;28;20430;-79
2021/11/19 07:08:18;;;;;;;2.13;1.77;;;21.90;55.40;;;;;;5035005;28;20435;-79
2021/11/19 07:10:47;;;;;;;1.70;1.50;;;21.90;55.30;;;;;;5034422;28;20423;-79
2021/11/19 07:13:13;;;;;;;2.80;1.80;;;21.90;55.30;;;;;;5015498;28;20438;-79
2021/11/19 07:15:40;;;;;;;2.37;1.43;;;21.90;55.30;;;;;;5017900;28;20407;-79
2021/11/19 07:18:05;;;;;;;1.40;1.30;;;21.90;55.30;;;;;;5034506;28;20416;-79
2021/11/19 07:20:32;;;;;;;2.27;1.70;;;21.90;55.30;;;;;;5014650;28;20794;-78
2021/11/19 07:22:59;;;;;;;1.83;1.60;;;21.90;55.30;;;;;;5030886;28;20196;-78
2021/11/19 07:25:27;;;;;;;1.50;1.40;;;21.90;55.30;;;;;;5031760;28;20775;-77
2021/11/19 07:27:56;;;;;;;2.00;1.20;;;21.90;55.30;;;;;;5021548;28;20458;-76
2021/11/19 07:30:39;;;;;;;1.80;1.40;;;21.90;55.30;;;;;;5231542;23;20901;-77
2021/11/19 07:33:04;;;;;;;2.20;1.50;;;21.90;55.30;;;;;;5051661;28;20411;-79
2021/11/19 07:35:31;;;;;;;1.73;1.63;;;21.90;55.90;;;;;;5051828;28;20406;-80
2021/11/19 07:37:57;;;;;;;2.07;1.37;;;21.90;55.30;;;;;;5050416;28;20186;-79
2021/11/19 07:40:26;;;;;;;2.40;1.40;;;21.90;55.30;;;;;;5052485;28;20426;-79
2021/11/19 07:42:53;;;;;;;1.30;1.20;;;21.90;55.30;;;;;;5053450;28;20191;-79
2021/11/19 07:45:19;;;;;;;1.93;1.53;;;21.90;55.30;;;;;;5051604;28;20422;-80
2021/11/19 07:47:46;;;;;;;2.90;2.03;;;21.90;55.30;;;;;;5051844;28;20509;-78
2021/11/19 07:50:15;;;;;;;1.53;1.43;;;21.90;55.30;;;;;;5052230;28;20198;-78
2021/11/19 07:52:41;;;;;;;1.53;1.40;;;21.90;55.30;;;;;;5051684;28;20793;-78
2021/11/19 07:55:08;;;;;;;1.87;1.50;;;21.90;55.30;;;;;;5052292;28;20415;-79
2021/11/19 07:57:34;;;;;;;2.33;1.40;;;21.90;55.30;;;;;;5053594;28;20195;-78
2021/11/19 08:00:00;;;;;;;1.87;1.23;;;21.90;55.30;;;;;;5050089;28;20410;-78
2021/11/19 08:02:26;;;;;;;1.90;1.57;;;21.90;55.30;;;;;;5049118;28;20426;-77
2021/11/19 08:04:52;;;;;;;1.50;1.33;;;21.90;55.30;;;;;;5049414;28;20498;-78
2021/11/19 08:07:17;;;;;;;1.70;1.33;;;21.90;55.30;;;;;;5050106;28;20203;-78
2021/11/19 08:09:43;;;;;;;1.90;1.50;;;21.90;55.30;;;;;;5049765;28;20172;-78
2021/11/19 08:12:09;;;;;;;2.07;1.73;;;21.90;55.30;;;;;;5048869;28;20194;-78
2021/11/19 08:14:35;;;;;;;2.17;1.40;;;21.90;55.30;;;;;;5048523;28;20433;-77
2021/11/19 08:17:10;;;;;;;2.30;1.60;;;21.90;55.30;;;;;;5051224;28;20205;-78
2021/11/19 08:19:43;;;;;;;2.30;1.87;;;21.90;55.30;;;;;;5050746;28;20306;-78
2021/11/19 08:22:10;;;;;;;1.40;1.30;;;21.90;55.30;;;;;;5048590;28;20414;-78
2021/11/19 08:24:36;;;;;;;1.67;1.40;;;21.90;55.30;;;;;;5032707;28;20916;-78
2021/11/19 08:27:41;;;;;;;2.30;1.67;;;21.90;55.30;;;;;;5050502;28;20541;-78
2021/11/19 08:30:12;;;;;;;1.70;1.30;;;21.90;55.30;;;;;;5048996;28;20191;-78
2021/11/19 08:32:39;;;;;;;2.80;1.93;;;21.90;55.30;;;;;;5051367;28;20386;-77
2021/11/19 08:35:05;;;;;;;1.93;1.50;;;21.90;55.30;;;;;;5054090;28;20410;-76
2021/11/19 08:37:31;;;;;;;1.50;1.40;;;21.90;55.30;;;;;;5052069;28;20415;-77
2021/11/19 08:39:57;;;;;;;1.60;1.33;;;21.90;55.30;;;;;;5052496;28;20174;-75
2021/11/19 08:42:27;;;;;;;1.80;1.50;;;21.90;55.30;;;;;;5052652;28;20827;-77
2021/11/19 08:44:53;;;;;;;2.13;1.40;;;21.90;55.30;;;;;;5051939;28;20449;-77
2021/11/19 08:47:20;;;;;;;1.50;1.30;;;21.90;55.30;;;;;;5051992;28;20457;-77
2021/11/19 08:49:46;;;;;;;1.70;1.30;;;22.00;55.30;;;;;;5052396;28;20437;-77
2021/11/19 08:52:15;;;;;;;1.60;1.40;;;21.90;55.20;;;;;;5052827;28;20411;-77
2021/11/19 08:54:41;;;;;;;1.50;1.40;;;22.00;55.30;;;;;;5053263;28;20414;-77
2021/11/19 08:57:11;;;;;;;1.70;1.40;;;22.00;55.30;;;;;;5052376;28;20425;-77
2021/11/19 08:59:39;;;;;;;1.83;1.40;;;22.00;55.20;;;;;;5052358;28;20876;-76
2021/11/19 09:02:13;;;;;;;1.70;1.40;;;22.00;55.20;;;;;;5053399;28;20433;-78
2021/11/19 09:04:55;;;;;;;1.50;1.30;;;22.00;55.20;;;;;;5052837;28;20419;-77
2021/11/19 09:07:33;;;;;;;1.67;1.40;;;22.10;55.30;;;;;;5054610;28;20415;-76
2021/11/19 09:10:01;;;;;;;2.27;1.90;;;22.00;55.20;;;;;;5054613;28;20421;-77
2021/11/19 09:12:26;;;;;;;1.67;1.30;;;22.10;55.30;;;;;;5054681;28;20437;-78
2021/11/19 09:14:53;;;;;;;1.97;1.40;;;22.10;55.20;;;;;;5054273;28;20423;-78
2021/11/19 09:17:22;;;;;;;1.50;1.17;;;22.10;55.20;;;;;;5054590;28;20174;-78
2021/11/19 09:20:02;;;;;;;2.10;1.53;;;22.10;55.20;;;;;;5052940;28;20422;-78
2021/11/19 09:22:34;;;;;;;1.80;1.50;;;22.10;55.20;;;;;;5052447;28;20394;-78
2021/11/19 09:25:03;;;;;;;1.67;1.50;;;22.10;55.20;;;;;;5052304;28;20422;-78
2021/11/19 09:27:34;;;;;;;1.47;1.37;;;22.10;55.20;;;;;;5053581;28;20453;-78
2021/11/19 09:30:14;;;;;;;1.97;1.57;;;22.10;55.20;;;;;;5052195;28;20461;-77
2021/11/19 09:32:46;;;;;;;1.97;1.20;;;22.10;55.10;;;;;;5052378;28;20407;-77
2021/11/19 09:35:13;;;;;;;1.43;1.17;;;22.10;55.10;;;;;;5045084;28;20415;-77
2021/11/19 09:37:40;;;;;;;2.13;1.17;;;22.10;55.10;;;;;;5052524;28;20480;-77
2021/11/19 09:40:09;;;;;;;2.53;1.20;;;22.10;55.30;;;;;;5053225;28;20422;-77
2021/11/19 09:43:01;;;;;;;1.77;1.63;;;22.10;55.10;;;;;;5052907;28;20765;-77
2021/11/19 09:45:58;;;;;;;1.50;1.27;;;22.20;55.20;;;;;;5053493;28;20402;-77
2021/11/19 09:48:56;;;;;;;1.87;1.30;;;22.10;55.10;;;;;;5052245;28;20492;-77
2021/11/19 09:51:56;;;;;;;1.37;1.20;;;22.20;55.20;;;;;;5053139;28;20778;-78
2021/11/19 09:54:44;;;;;;;1.40;1.00;;;22.20;55.20;;;;;;5053093;28;20407;-77
2021/11/19 09:57:56;;;;;;;1.83;1.00;;;22.20;55.20;;;;;;5052814;28;20393;-78
2021/11/19 10:00:43;;;;;;;1.80;1.27;;;22.20;55.20;;;;;;5054139;28;20415;-77
2021/11/19 10:03:29;;;;;;;1.43;1.30;;;22.10;55.20;;;;;;5053753;28;20407;-77
2021/11/19 10:06:07;;;;;;;1.53;1.20;;;22.10;55.20;;;;;;5053091;28;20398;-77
2021/11/19 10:08:49;;;;;;;1.13;1.03;;;22.10;55.20;;;;;;5054161;28;20897;-76
2021/11/19 10:11:26;;;;;;;1.30;1.17;;;22.20;55.30;;;;;;5054049;28;20390;-77
2021/11/19 10:14:20;;;;;;;1.70;1.50;;;22.20;55.30;;;;;;5052578;28;20429;-78
2021/11/19 10:17:09;;;;;;;1.50;1.30;;;22.20;55.20;;;;;;5054024;28;20415;-78
2021/11/19 10:19:54;;;;;;;1.80;1.50;;;22.20;55.30;;;;;;5052926;28;20771;-77
2021/11/19 10:22:33;;;;;;;2.10;1.60;;;22.20;55.30;;;;;;5051428;28;20456;-77
2021/11/19 10:28:38;;;;;;;1.33;1.20;;;22.20;55.20;;;;;;5052651;28;20457;-77
2021/11/19 10:31:06;;;;;;;1.50;1.17;;;22.20;55.30;;;;;;5052718;28;20442;-78
2021/11/19 10:33:40;;;;;;;1.90;1.60;;;22.20;55.30;;;;;;5055889;28;20464;-78
2021/11/19 10:36:53;;;;;;;1.30;1.13;;;22.20;55.20;;;;;;5056550;28;20395;-77
2021/11/19 10:39:38;;;;;;;1.40;1.17;;;22.20;55.20;;;;;;5055320;28;20418;-78
2021/11/19 10:42:31;;;;;;;1.20;1.03;;;22.20;55.20;;;;;;5055615;28;20425;-78
2021/11/19 10:45:19;;;;;;;4.50;1.67;;;22.20;55.20;;;;;;5052129;28;20983;-78
2021/11/19 10:48:05;;;;;;;1.60;1.30;;;22.20;55.20;;;;;;5052038;28;20500;-78
2021/11/19 10:50:56;;;;;;;1.27;1.13;;;22.20;55.20;;;;;;5052412;28;20391;-78
2021/11/19 10:53:46;;;;;;;2.00;1.33;;;22.20;55.20;;;;;;5052208;28;20398;-77
2021/11/19 10:56:40;;;;;;;1.80;1.33;;;22.20;55.20;;;;;;5051102;28;20437;-77
2021/11/19 10:59:40;;;;;;;1.20;1.00;;;22.20;55.20;;;;;;5052125;28;20987;-78
2021/11/19 11:02:09;;;;;;;1.50;1.40;;;22.20;55.20;;;;;;5053337;28;20785;-78
2021/11/19 11:04:49;;;;;;;1.30;1.20;;;22.20;55.20;;;;;;5053164;28;20482;-77
2021/11/19 11:07:17;;;;;;;1.90;1.70;;;22.20;55.20;;;;;;5051207;28;20814;-78
2021/11/19 11:09:50;;;;;;;1.77;1.20;;;22.20;55.20;;;;;;5051243;28;20423;-80
2021/11/19 11:12:45;;;;;;;1.50;1.23;;;22.20;55.20;;;;;;5050423;28;20414;-80
2021/11/19 11:15:22;;;;;;;1.93;1.43;;;22.30;55.20;;;;;;5042315;28;20434;-80
2021/11/19 11:18:29;;;;;;;1.80;1.57;;;22.20;55.20;;;;;;5051722;28;20414;-80
2021/11/19 11:21:14;;;;;;;1.73;1.50;;;22.20;55.20;;;;;;4972073;29;20873;-79
2021/11/19 11:23:43;;;;;;;1.40;1.30;;;22.20;55.20;;;;;;4974564;29;20458;-78
2021/11/19 11:26:12;;;;;;;1.60;1.20;;;22.20;55.20;;;;;;4971842;29;20440;-77
2021/11/19 11:28:55;;;;;;;1.47;1.37;;;22.20;55.20;;;;;;4964063;29;20422;-79
2021/11/19 11:31:45;;;;;;;2.03;1.60;;;22.20;55.20;;;;;;4974197;29;20422;-78
2021/11/19 11:34:24;;;;;;;2.13;1.20;;;22.20;55.20;;;;;;4972272;29;20400;-79
2021/11/19 11:37:00;;;;;;;1.83;1.60;;;22.30;55.30;;;;;;4973296;29;20421;-78
2021/11/19 11:39:37;;;;;;;1.80;1.33;;;22.20;55.20;;;;;;4957694;29;20421;-79
2021/11/19 11:42:24;;;;;;;1.37;1.20;;;22.20;55.10;;;;;;4938699;29;20424;-78
2021/11/19 11:44:53;;;;;;;1.40;1.30;;;22.30;55.30;;;;;;4970962;29;20511;-79
2021/11/19 11:47:43;;;;;;;1.73;1.63;;;22.30;55.30;;;;;;4954537;29;20461;-80
2021/11/19 11:50:33;;;;;;;1.63;1.53;;;22.30;55.30;;;;;;4970007;29;20442;-79
2021/11/19 11:53:14;;;;;;;1.70;1.60;;;22.30;55.20;;;;;;4954526;29;20424;-79
2021/11/19 11:55:42;;;;;;;1.30;1.20;;;22.30;55.30;;;;;;4963205;28;20419;-79
2021/11/19 11:58:15;;;;;;;1.80;1.20;;;22.20;55.10;;;;;;5029261;28;20423;-79
2021/11/19 12:01:17;;;;;;;1.30;1.13;;;22.30;55.20;;;;;;5030236;28;20500;-77
2021/11/19 12:03:55;;;;;;;1.50;1.30;;;22.30;55.20;;;;;;5029615;28;20430;-79
2021/11/19 12:06:54;;;;;;;1.30;1.07;;;22.30;55.20;;;;;;5029612;28;20450;-76
2021/11/19 12:09:32;;;;;;;2.33;1.60;;;22.30;55.20;;;;;;5028090;28;20411;-79
2021/11/19 12:12:30;;;;;;;1.50;1.20;;;22.30;55.20;;;;;;5029186;28;20399;-78
2021/11/19 12:15:34;;;;;;;1.27;1.13;;;22.30;55.20;;;;;;5030052;28;20420;-78
2021/11/19 12:18:26;;;;;;;1.60;1.30;;;22.30;55.20;;;;;;5029638;28;20411;-78
2021/11/19 12:21:07;;;;;;;1.43;1.20;;;22.30;55.20;;;;;;5029861;28;20406;-78
2021/11/19 12:24:17;;;;;;;1.60;1.40;;;22.30;55.20;;;;;;5032712;28;20419;-78
2021/11/19 12:27:05;;;;;;;2.27;1.57;;;22.30;55.30;;;;;;4976883;28;20455;-77
2021/11/19 12:29:46;;;;;;;3.77;1.60;;;22.20;55.20;;;;;;5029838;28;20490;-77
2021/11/19 12:35:43;;;;;;;5.23;3.07;;;22.30;55.20;;;;;;5030600;28;20386;-77
2021/11/19 12:38:20;;;;;;;3.80;2.70;;;22.20;55.20;;;;;;5031347;28;20422;-78
2021/11/19 12:40:55;;;;;;;5.00;2.87;;;22.30;55.30;;;;;;5030234;28;20419;-78
2021/11/19 12:43:33;;;;;;;8.80;3.87;;;22.20;55.20;;;;;;5028951;28;20425;-77
2021/11/19 12:46:27;;;;;;;6.70;3.40;;;22.30;55.20;;;;;;5029004;28;20411;-78
2021/11/19 12:49:20;;;;;;;6.87;3.83;;;22.30;55.20;;;;;;5028173;28;20416;-77
2021/11/19 12:52:11;;;;;;;5.00;3.60;;;22.30;55.30;;;;;;5027278;28;20400;-78
2021/11/19 12:58:32;;;;;;;13.57;4.63;;;22.30;55.30;;;;;;5028422;28;20479;-78
2021/11/19 13:01:05;;;;;;;7.20;4.50;;;22.30;55.30;;;;;;5025351;28;20416;-78
2021/11/19 13:04:05;;;;;;;11.50;5.57;;;22.20;55.20;;;;;;5027893;28;20427;-78
2021/11/19 13:06:58;;;;;;;9.93;5.60;;;22.20;55.20;;;;;;4975019;28;20455;-78
2021/11/19 13:09:33;;;;;;;11.67;6.20;;;22.20;55.20;;;;;;5028410;28;20408;-77
2021/11/19 13:12:20;;;;;;;10.63;6.23;;;22.20;55.30;;;;;;5028224;28;20573;-78
2021/11/19 13:15:22;;;;;;;12.80;7.30;;;22.20;55.30;;;;;;5026813;28;20411;-77
2021/11/19 13:18:13;;;;;;;12.10;7.50;;;22.20;55.20;;;;;;5027682;28;20449;-77
2021/11/19 13:20:51;;;;;;;15.90;7.10;;;22.20;55.30;;;;;;5027913;28;20419;-78
2021/11/19 13:23:31;;;;;;;10.40;5.90;;;22.20;55.30;;;;;;5030027;28;20399;-78
2021/11/19 13:26:18;;;;;;;13.80;6.77;;;22.20;55.30;;;;;;5030144;28;20499;-78
2021/11/19 13:28:53;;;;;;;11.80;6.90;;;22.20;55.30;;;;;;5028934;28;20521;-79